Terminal Aerodrome Forecast
Issued by NWS

Home | Current Version | Previous Version | Text Only | Print | Product List | Glossary On
Versions: 1 2 3 4 5 6 7 8 9 10 11 12 13 14 15 16 17 18 19 20 21 22 23 24
738
FTUS43 KGRR 051406 AAA
TAFBTL
TAF AMD
KBTL 051406Z 0514/0612 35008KT P6SM SCT012
     FM051600 31010KT P6SM SKC
     FM060600 00000KT P6SM SKC=

USA.gov is the U.S. government's official web portal to all federal, state and local government web resources and services.